Time;durP1;ratioP1;P1;durP2;ratioP2;P2;SDS_P1;SDS_P2;PMS_P1;PMS_P2;Temp;Humidity;BMP_temperature;BMP_pressure;BME280_temperature;BME280_humidity;BME280_pressure;Samples;Min_cycle;Max_cycle;Signal;HPM_P1;HPM_P2
2023/04/15 00:01:19;;;;;;;10.52;5.75;;;8.90;99.90;;;;;;4975394;28;20046;-66
2023/04/15 00:03:46;;;;;;;9.75;5.35;;;8.90;99.90;;;;;;4958941;28;20072;-64
2023/04/15 00:06:12;;;;;;;12.27;5.70;;;8.90;99.90;;;;;;4997340;28;20046;-63
2023/04/15 00:08:38;;;;;;;11.85;5.78;;;8.80;99.90;;;;;;4993695;28;20042;-63
2023/04/15 00:11:04;;;;;;;10.93;6.00;;;8.80;99.90;;;;;;4985162;28;20034;-63
2023/04/15 00:13:32;;;;;;;9.25;5.95;;;8.80;99.90;;;;;;4999802;28;20442;-62
2023/04/15 00:15:58;;;;;;;12.00;6.35;;;8.80;99.90;;;;;;4997299;28;20048;-66
2023/04/15 00:18:24;;;;;;;12.65;6.22;;;8.80;99.90;;;;;;4996247;28;20488;-67
2023/04/15 00:20:49;;;;;;;9.68;5.72;;;8.70;99.90;;;;;;4979678;28;20394;-66
2023/04/15 00:23:15;;;;;;;14.60;5.95;;;8.70;99.90;;;;;;4998061;28;20042;-64
2023/04/15 00:25:41;;;;;;;8.68;5.40;;;8.70;99.90;;;;;;4998397;28;20045;-67
2023/04/15 00:28:07;;;;;;;11.73;6.10;;;8.70;99.90;;;;;;4996647;28;20030;-66
2023/04/15 00:30:33;;;;;;;11.13;5.65;;;8.60;99.90;;;;;;4998791;28;20042;-66
2023/04/15 00:33:02;;;;;;;12.45;5.93;;;8.60;99.90;;;;;;4984824;28;20039;-65
2023/04/15 00:35:28;;;;;;;10.15;5.78;;;8.60;99.90;;;;;;4989090;28;20122;-64
2023/04/15 00:37:53;;;;;;;13.88;6.18;;;8.60;99.90;;;;;;4994191;28;20512;-64
2023/04/15 00:40:20;;;;;;;16.23;6.30;;;8.50;99.90;;;;;;4993042;28;20116;-67
2023/04/15 00:42:46;;;;;;;10.98;5.82;;;8.50;99.90;;;;;;4998286;28;20044;-66
2023/04/15 00:45:12;;;;;;;11.75;6.20;;;8.50;99.90;;;;;;4983468;28;20396;-65
2023/04/15 00:47:41;;;;;;;11.85;6.13;;;8.50;99.90;;;;;;4992392;28;20042;-66
2023/04/15 00:50:07;;;;;;;11.32;6.20;;;8.40;99.90;;;;;;4980197;28;20459;-65
2023/04/15 00:52:33;;;;;;;11.23;5.75;;;8.40;99.90;;;;;;4994358;28;20042;-63
2023/04/15 00:54:59;;;;;;;11.15;5.78;;;8.40;99.90;;;;;;4972923;28;20113;-66
2023/04/15 00:57:25;;;;;;;10.95;5.88;;;8.40;99.90;;;;;;4995219;28;20458;-65
2023/04/15 00:59:51;;;;;;;13.35;6.00;;;8.40;99.90;;;;;;4996936;28;20081;-66
2023/04/15 01:02:17;;;;;;;12.52;6.57;;;8.40;99.90;;;;;;4969262;28;20513;-64
2023/04/15 01:04:43;;;;;;;13.13;5.97;;;8.30;99.90;;;;;;4980302;28;20046;-67
2023/04/15 01:07:08;;;;;;;14.23;5.97;;;8.30;99.90;;;;;;4989677;28;20061;-64
2023/04/15 01:09:34;;;;;;;15.13;5.90;;;8.30;99.90;;;;;;4984995;28;20082;-66
2023/04/15 01:12:01;;;;;;;10.32;5.85;;;8.20;99.90;;;;;;5000080;28;20121;-63
2023/04/15 01:14:27;;;;;;;11.98;6.15;;;8.20;99.90;;;;;;4969773;28;20046;-64
2023/04/15 01:16:53;;;;;;;11.60;6.38;;;8.20;99.90;;;;;;4970729;28;20042;-66
2023/04/15 01:19:21;;;;;;;11.43;6.05;;;8.20;99.90;;;;;;4969386;28;20393;-63
2023/04/15 01:21:48;;;;;;;9.73;6.38;;;8.20;99.90;;;;;;4995747;28;20569;-66
2023/04/15 01:24:16;;;;;;;10.40;6.32;;;8.20;99.90;;;;;;4988757;28;20045;-66
2023/04/15 01:26:42;;;;;;;12.05;6.22;;;8.70;99.90;;;;;;4985108;28;20097;-67
2023/04/15 01:29:08;;;;;;;12.05;6.47;;;8.10;99.90;;;;;;4985231;28;20046;-66
2023/04/15 01:31:34;;;;;;;15.27;6.50;;;8.10;99.90;;;;;;4965021;28;20054;-66
2023/04/15 01:34:00;;;;;;;9.80;6.30;;;8.10;99.90;;;;;;4972542;28;20125;-66
2023/04/15 01:36:25;;;;;;;14.43;6.65;;;8.10;99.90;;;;;;4989744;28;20484;-64
2023/04/15 01:38:51;;;;;;;12.77;6.60;;;8.00;99.90;;;;;;4992444;28;20038;-66
2023/04/15 01:41:24;;;;;;;11.60;6.40;;;8.00;99.90;;;;;;4981610;28;20438;-64
2023/04/15 01:43:50;;;;;;;11.43;6.25;;;8.00;99.90;;;;;;4973206;28;20054;-62
2023/04/15 01:46:15;;;;;;;13.48;6.75;;;8.00;99.90;;;;;;4994155;28;20056;-62
2023/04/15 01:48:46;;;;;;;11.45;6.05;;;8.00;99.90;;;;;;4990113;28;20049;-63
2023/04/15 01:51:11;;;;;;;10.93;6.15;;;7.90;99.90;;;;;;4967174;28;20061;-65
2023/04/15 01:53:37;;;;;;;10.38;6.10;;;7.90;99.90;;;;;;4975338;28;20050;-65
2023/04/15 01:56:03;;;;;;;11.65;6.00;;;8.20;99.90;;;;;;4993450;28;20497;-65
2023/04/15 01:58:29;;;;;;;12.68;6.50;;;7.90;99.90;;;;;;4984111;28;20076;-65
2023/04/15 02:00:54;;;;;;;10.40;5.97;;;7.90;99.90;;;;;;4999202;28;20109;-63
2023/04/15 02:03:20;;;;;;;11.20;5.90;;;7.90;99.90;;;;;;4990215;28;20039;-63
2023/04/15 02:05:46;;;;;;;13.35;7.32;;;7.90;99.90;;;;;;4994184;28;20146;-63
2023/04/15 02:08:12;;;;;;;11.15;6.43;;;7.80;99.90;;;;;;4974938;28;20049;-63
2023/04/15 02:10:38;;;;;;;13.60;6.78;;;7.80;99.90;;;;;;4971288;28;20097;-63
2023/04/15 02:13:04;;;;;;;11.13;6.32;;;7.80;99.90;;;;;;4978723;28;20543;-63
2023/04/15 02:15:30;;;;;;;12.02;5.88;;;7.80;99.90;;;;;;4990837;28;20612;-63
2023/04/15 02:17:55;;;;;;;12.20;6.32;;;7.80;99.90;;;;;;4990427;28;20034;-63
2023/04/15 02:20:21;;;;;;;10.52;6.55;;;7.80;99.90;;;;;;4976056;28;20049;-66
2023/04/15 02:22:47;;;;;;;14.60;6.93;;;7.70;99.90;;;;;;4989923;28;21404;-68
2023/04/15 02:25:13;;;;;;;10.20;6.38;;;7.70;99.90;;;;;;4993322;28;20054;-63
2023/04/15 02:27:39;;;;;;;10.43;6.25;;;7.70;99.90;;;;;;4994330;28;20133;-66
2023/04/15 02:30:06;;;;;;;12.45;6.70;;;7.70;99.90;;;;;;4975894;28;20469;-64
2023/04/15 02:32:32;;;;;;;11.13;6.35;;;7.70;99.90;;;;;;4994477;28;20050;-66
2023/04/15 02:35:04;;;;;;;13.38;6.32;;;7.70;99.90;;;;;;4995191;28;20500;-65
2023/04/15 02:37:31;;;;;;;12.48;6.75;;;7.60;99.90;;;;;;4983562;28;20042;-64
2023/04/15 02:39:56;;;;;;;13.80;6.70;;;7.70;99.90;;;;;;4971152;28;20038;-62
2023/04/15 02:42:22;;;;;;;9.90;6.13;;;7.60;99.90;;;;;;4989725;28;20118;-64
2023/04/15 02:44:48;;;;;;;11.90;6.32;;;7.60;99.90;;;;;;5009099;28;20117;-66
2023/04/15 02:47:14;;;;;;;12.00;7.28;;;7.50;99.90;;;;;;4992450;28;20088;-63
2023/04/15 02:49:40;;;;;;;11.77;6.50;;;7.50;99.90;;;;;;4986984;28;20042;-64
2023/04/15 02:52:06;;;;;;;14.13;7.35;;;7.50;99.90;;;;;;4990002;28;20377;-66
2023/04/15 02:54:32;;;;;;;13.15;7.10;;;7.50;99.90;;;;;;4991348;28;20046;-66
2023/04/15 02:56:58;;;;;;;12.38;7.07;;;7.50;99.90;;;;;;4991995;28;20042;-65
2023/04/15 02:59:24;;;;;;;11.57;7.10;;;7.50;99.90;;;;;;4993322;28;20489;-67
2023/04/15 03:01:50;;;;;;;10.63;7.20;;;7.40;99.90;;;;;;4991631;28;20073;-69
2023/04/15 03:04:15;;;;;;;13.45;6.72;;;7.40;99.90;;;;;;4992647;28;20038;-63
2023/04/15 03:06:41;;;;;;;12.05;7.45;;;7.40;99.90;;;;;;4976994;28;20042;-63
2023/04/15 03:09:07;;;;;;;13.20;7.20;;;7.30;99.90;;;;;;4973160;28;20053;-67
2023/04/15 03:11:34;;;;;;;13.02;6.97;;;7.30;99.90;;;;;;4991026;28;20038;-66
2023/04/15 03:13:59;;;;;;;12.50;7.65;;;7.30;99.90;;;;;;4979897;28;20045;-66
2023/04/15 03:16:25;;;;;;;14.35;7.82;;;7.30;99.90;;;;;;4992883;28;20038;-66
2023/04/15 03:18:50;;;;;;;13.18;7.40;;;7.30;99.90;;;;;;4994714;28;21511;-65
2023/04/15 03:21:16;;;;;;;13.30;8.18;;;7.30;99.90;;;;;;4993105;28;20046;-67
2023/04/15 03:23:42;;;;;;;12.98;7.47;;;7.30;99.90;;;;;;4993177;28;20092;-66
2023/04/15 03:26:08;;;;;;;13.93;8.02;;;7.30;99.90;;;;;;4989748;28;20045;-66
2023/04/15 03:28:33;;;;;;;14.38;8.15;;;7.30;99.90;;;;;;4973211;28;20130;-66
2023/04/15 03:30:59;;;;;;;12.30;8.32;;;7.30;99.90;;;;;;4970595;28;20042;-64
2023/04/15 03:33:25;;;;;;;13.20;7.68;;;7.20;99.90;;;;;;4996480;28;20038;-65
2023/04/15 03:35:51;;;;;;;12.93;7.85;;;7.20;99.90;;;;;;4994447;28;21329;-67
2023/04/15 03:38:17;;;;;;;12.35;8.20;;;7.20;99.90;;;;;;4992594;28;20042;-65
2023/04/15 03:40:45;;;;;;;14.75;8.43;;;7.20;99.90;;;;;;5000111;28;20524;-64
2023/04/15 03:43:11;;;;;;;13.40;8.43;;;7.20;99.90;;;;;;4986080;28;20065;-66
2023/04/15 03:45:36;;;;;;;14.23;8.55;;;7.20;99.90;;;;;;4975426;28;20046;-67
2023/04/15 03:48:02;;;;;;;14.10;8.68;;;7.10;99.90;;;;;;4990204;28;20523;-66
2023/04/15 03:50:28;;;;;;;14.10;9.18;;;7.10;99.90;;;;;;4974880;28;20054;-66
2023/04/15 03:52:53;;;;;;;14.63;9.07;;;7.10;99.90;;;;;;4991342;28;20049;-66
2023/04/15 03:55:19;;;;;;;14.35;8.98;;;7.10;99.90;;;;;;4990679;28;20039;-67
2023/04/15 03:57:45;;;;;;;18.20;9.05;;;7.10;99.90;;;;;;4991643;28;20081;-66
2023/04/15 04:00:11;;;;;;;17.40;9.27;;;7.10;99.90;;;;;;4984741;28;20070;-66
2023/04/15 04:02:36;;;;;;;16.35;9.18;;;7.10;99.90;;;;;;4991490;28;20617;-66
2023/04/15 04:05:03;;;;;;;18.33;9.25;;;7.00;99.90;;;;;;5003917;28;20210;-66
2023/04/15 04:07:29;;;;;;;13.82;9.32;;;7.00;99.90;;;;;;4985771;28;20046;-64
2023/04/15 04:09:56;;;;;;;16.02;9.88;;;7.00;99.90;;;;;;4988105;28;20042;-64
2023/04/15 04:12:22;;;;;;;14.60;9.25;;;7.00;99.90;;;;;;4973312;28;20042;-64
2023/04/15 04:14:47;;;;;;;14.40;9.00;;;6.90;99.90;;;;;;4980965;28;20133;-63
2023/04/15 04:17:13;;;;;;;14.25;9.50;;;6.90;99.90;;;;;;4980309;28;20607;-64
2023/04/15 04:19:38;;;;;;;15.88;10.13;;;6.90;99.90;;;;;;4996476;28;20041;-64
2023/04/15 04:22:04;;;;;;;16.77;10.25;;;6.90;99.90;;;;;;4996530;28;20522;-64
2023/04/15 04:24:30;;;;;;;15.52;10.25;;;6.90;99.90;;;;;;5004482;28;20034;-63
2023/04/15 04:26:56;;;;;;;15.30;9.95;;;6.80;99.90;;;;;;4972991;28;20045;-64
2023/04/15 04:29:22;;;;;;;15.77;9.23;;;6.90;99.90;;;;;;4971473;28;20046;-64
2023/04/15 04:31:48;;;;;;;17.83;9.60;;;6.80;99.90;;;;;;4998290;28;20057;-63
2023/04/15 04:34:14;;;;;;;17.05;9.95;;;6.80;99.90;;;;;;4973991;28;20042;-63
2023/04/15 04:36:39;;;;;;;16.77;9.70;;;6.80;99.90;;;;;;4971204;28;20060;-64
2023/04/15 04:39:05;;;;;;;14.73;9.88;;;6.80;99.90;;;;;;4992185;28;20038;-65
2023/04/15 04:41:31;;;;;;;17.40;9.93;;;6.80;99.90;;;;;;4988138;28;20042;-63
2023/04/15 04:43:56;;;;;;;17.75;9.80;;;6.80;99.90;;;;;;5000602;28;20074;-63
2023/04/15 04:46:22;;;;;;;17.95;9.70;;;6.80;99.90;;;;;;5001357;28;20037;-63
2023/04/15 04:48:48;;;;;;;19.20;10.55;;;6.80;99.90;;;;;;4998576;23;20108;-74
2023/04/15 04:51:14;;;;;;;16.58;10.25;;;6.80;99.90;;;;;;5008199;28;20056;-75
2023/04/15 04:53:41;;;;;;;16.23;9.48;;;6.80;99.90;;;;;;4974972;28;20482;-75
2023/04/15 04:56:08;;;;;;;17.70;10.75;;;6.80;99.90;;;;;;4991735;28;20030;-75
2023/04/15 04:58:33;;;;;;;19.33;10.82;;;6.70;99.90;;;;;;4993799;28;20042;-75
2023/04/15 05:00:59;;;;;;;15.23;9.90;;;6.70;99.90;;;;;;5004340;28;20037;-75
2023/04/15 05:03:25;;;;;;;15.82;10.13;;;6.70;99.90;;;;;;4987762;28;20045;-75
2023/04/15 05:05:51;;;;;;;15.00;9.65;;;6.70;99.90;;;;;;5008651;28;20029;-75
2023/04/15 05:08:16;;;;;;;16.48;10.50;;;6.70;99.90;;;;;;4984567;28;20057;-75
2023/04/15 05:10:42;;;;;;;19.08;10.85;;;6.70;99.90;;;;;;5002612;28;20042;-75
2023/04/15 05:13:08;;;;;;;21.52;10.73;;;6.70;99.90;;;;;;4975172;28;20481;-75
2023/04/15 05:15:35;;;;;;;16.73;10.25;;;6.70;99.90;;;;;;5007744;28;20084;-75
2023/04/15 05:18:05;;;;;;;18.10;11.33;;;6.70;99.90;;;;;;4967169;28;20546;-75
2023/04/15 05:20:31;;;;;;;18.33;10.90;;;6.70;99.90;;;;;;4984420;28;20163;-75
2023/04/15 05:22:56;;;;;;;17.15;11.18;;;6.70;99.90;;;;;;4994095;28;20131;-74
2023/04/15 05:25:22;;;;;;;17.05;10.38;;;6.70;99.90;;;;;;4981751;28;20434;-74
2023/04/15 05:27:47;;;;;;;15.85;10.48;;;6.70;99.90;;;;;;4977936;28;20502;-74
2023/04/15 05:30:16;;;;;;;17.52;10.45;;;6.70;99.90;;;;;;4984927;28;20133;-74
2023/04/15 05:32:42;;;;;;;16.40;10.43;;;6.70;99.90;;;;;;5005579;28;20042;-74
2023/04/15 05:35:07;;;;;;;16.60;10.55;;;6.70;99.90;;;;;;4990791;28;20436;-74
2023/04/15 05:37:33;;;;;;;16.30;10.30;;;6.70;99.90;;;;;;4990185;28;20520;-74
2023/04/15 05:39:59;;;;;;;17.13;10.95;;;6.70;99.90;;;;;;4977385;28;20401;-74
2023/04/15 05:42:25;;;;;;;20.00;11.50;;;6.70;99.90;;;;;;4970035;28;20054;-76
2023/04/15 05:44:54;;;;;;;17.35;10.75;;;6.80;99.90;;;;;;4991852;28;20041;-75
2023/04/15 05:47:20;;;;;;;16.48;10.40;;;6.80;99.90;;;;;;4987639;28;20041;-74
2023/04/15 05:49:48;;;;;;;17.75;10.77;;;6.80;99.90;;;;;;4993149;28;20037;-74
2023/04/15 05:52:14;;;;;;;16.92;10.32;;;6.80;99.90;;;;;;5009140;28;20034;-74
2023/04/15 05:54:39;;;;;;;16.52;10.52;;;6.80;99.90;;;;;;4990240;28;20466;-74
2023/04/15 05:57:05;;;;;;;19.45;11.07;;;6.90;99.90;;;;;;5008976;28;20052;-74
2023/04/15 05:59:31;;;;;;;17.75;10.95;;;6.90;99.90;;;;;;4993963;28;20042;-74
2023/04/15 06:02:00;;;;;;;19.95;11.93;;;6.90;99.90;;;;;;4985297;28;20050;-74
2023/04/15 06:04:26;;;;;;;18.33;11.25;;;6.90;99.90;;;;;;5007908;28;20034;-74
2023/04/15 06:06:52;;;;;;;17.63;11.63;;;6.90;99.90;;;;;;5008201;28;20427;-74
2023/04/15 06:09:17;;;;;;;19.30;11.70;;;6.90;99.90;;;;;;4984816;28;20045;-75
2023/04/15 06:11:43;;;;;;;17.48;11.05;;;7.00;99.90;;;;;;4991168;28;20509;-75
2023/04/15 06:14:09;;;;;;;18.85;11.40;;;7.00;99.90;;;;;;4986188;28;20041;-74
2023/04/15 06:16:35;;;;;;;18.90;11.18;;;7.00;99.90;;;;;;4985933;28;20088;-74
2023/04/15 06:19:01;;;;;;;17.50;10.85;;;7.00;99.90;;;;;;4985788;28;20037;-74
2023/04/15 06:21:26;;;;;;;19.77;11.30;;;7.10;99.90;;;;;;5004495;28;20125;-74
2023/04/15 06:23:56;;;;;;;16.50;10.48;;;7.10;99.90;;;;;;4990633;28;20041;-74
2023/04/15 06:26:25;;;;;;;17.00;10.82;;;7.10;99.90;;;;;;5002526;28;20151;-76
2023/04/15 06:28:50;;;;;;;18.70;11.20;;;7.10;99.90;;;;;;5008025;28;20069;-73
2023/04/15 06:31:16;;;;;;;16.90;9.82;;;7.20;99.90;;;;;;5011008;28;20077;-74
2023/04/15 06:33:42;;;;;;;16.83;9.98;;;7.20;99.90;;;;;;4993585;28;20637;-74
2023/04/15 06:36:07;;;;;;;17.42;10.15;;;7.30;99.90;;;;;;4981994;28;20093;-74
2023/04/15 06:38:33;;;;;;;15.30;10.05;;;7.30;99.90;;;;;;5008626;28;20037;-74
2023/04/15 06:40:59;;;;;;;15.82;9.60;;;7.30;99.90;;;;;;4977560;28;20045;-75
2023/04/15 06:43:24;;;;;;;15.50;10.30;;;7.40;99.90;;;;;;4988392;28;20038;-75
2023/04/15 06:45:50;;;;;;;16.30;9.45;;;7.40;99.90;;;;;;4992368;28;20048;-74
2023/04/15 06:48:16;;;;;;;16.90;9.85;;;7.50;99.90;;;;;;4991384;28;20082;-75
2023/04/15 06:50:44;;;;;;;14.20;9.77;;;7.50;99.90;;;;;;4987774;28;20041;-75
2023/04/15 06:53:13;;;;;;;14.63;9.52;;;7.60;99.90;;;;;;4987361;28;20042;-75
2023/04/15 06:55:40;;;;;;;17.13;10.13;;;7.70;99.90;;;;;;5009816;28;20044;-76
2023/04/15 06:58:06;;;;;;;16.10;9.98;;;7.70;99.90;;;;;;4969946;28;20073;-75
2023/04/15 07:00:32;;;;;;;17.08;9.90;;;7.80;99.90;;;;;;5005943;28;20071;-75
2023/04/15 07:03:02;;;;;;;13.95;9.43;;;7.90;99.90;;;;;;4968928;28;20033;-74
2023/04/15 07:05:29;;;;;;;15.52;9.75;;;8.00;99.90;;;;;;4992215;28;20044;-74
2023/04/15 07:07:56;;;;;;;16.77;10.13;;;8.00;99.90;;;;;;4999080;28;20056;-74
2023/04/15 07:10:21;;;;;;;16.35;10.48;;;8.10;99.90;;;;;;4994869;28;20120;-74
2023/04/15 07:12:49;;;;;;;14.60;9.63;;;8.10;99.90;;;;;;5007995;28;20077;-74
2023/04/15 07:15:15;;;;;;;15.07;9.65;;;8.20;99.90;;;;;;5011980;28;20041;-74
2023/04/15 07:17:42;;;;;;;14.60;9.93;;;8.20;99.90;;;;;;5006974;28;20128;-74
2023/04/15 07:20:08;;;;;;;15.45;9.40;;;8.30;99.90;;;;;;4970403;28;20094;-75
2023/04/15 07:22:34;;;;;;;19.58;10.13;;;8.40;99.90;;;;;;4995831;28;20065;-75
2023/04/15 07:25:03;;;;;;;16.25;9.77;;;8.40;99.90;;;;;;4997299;28;20038;-75
2023/04/15 07:27:28;;;;;;;18.27;10.60;;;8.50;99.90;;;;;;4992445;28;20077;-75
2023/04/15 07:29:54;;;;;;;18.23;9.82;;;8.60;99.90;;;;;;4985271;28;20080;-75
2023/04/15 07:32:20;;;;;;;15.40;10.15;;;8.70;99.90;;;;;;4995315;28;20242;-75
2023/04/15 07:34:45;;;;;;;15.73;9.40;;;8.80;99.90;;;;;;4978057;28;20042;-75
2023/04/15 07:37:11;;;;;;;15.77;10.20;;;8.80;99.90;;;;;;4993969;28;20109;-75
2023/04/15 07:39:37;;;;;;;19.13;9.95;;;8.80;99.90;;;;;;4995652;28;20405;-74
2023/04/15 07:42:03;;;;;;;17.00;9.73;;;8.90;99.90;;;;;;4990899;28;20046;-74
2023/04/15 07:44:29;;;;;;;15.70;9.13;;;8.90;99.90;;;;;;4986558;28;20042;-73
2023/04/15 07:46:55;;;;;;;15.63;8.68;;;9.00;99.90;;;;;;4989229;28;20037;-77
2023/04/15 07:49:21;;;;;;;17.05;8.75;;;9.00;99.90;;;;;;4994307;28;20042;-75
2023/04/15 07:51:48;;;;;;;14.25;8.95;;;9.10;99.90;;;;;;4974185;28;20057;-74
2023/04/15 07:54:16;;;;;;;14.70;8.80;;;9.70;99.90;;;;;;4983864;28;20037;-75
2023/04/15 07:56:44;;;;;;;13.85;8.35;;;9.20;99.90;;;;;;4981941;28;20045;-74
2023/04/15 07:59:10;;;;;;;14.95;9.27;;;9.20;99.90;;;;;;5005070;28;20038;-74
2023/04/15 08:01:36;;;;;;;14.93;8.02;;;9.30;99.90;;;;;;4977993;28;20095;-74
2023/04/15 08:04:02;;;;;;;13.57;7.90;;;9.30;99.90;;;;;;4995378;28;20478;-74
2023/04/15 08:06:28;;;;;;;13.80;7.43;;;9.40;99.90;;;;;;4992477;28;20087;-74
2023/04/15 08:08:54;;;;;;;12.57;7.97;;;9.40;99.90;;;;;;4967929;28;20041;-75
2023/04/15 08:11:21;;;;;;;12.00;8.10;;;10.40;99.90;;;;;;5006879;28;20049;-74
2023/04/15 08:13:47;;;;;;;13.52;7.38;;;9.50;99.90;;;;;;5005470;28;20140;-74
2023/04/15 08:16:21;;;;;;;12.45;7.35;;;9.60;99.90;;;;;;5004582;28;20331;-74
2023/04/15 08:18:48;;;;;;;11.32;7.38;;;9.60;99.90;;;;;;4977110;28;20038;-74
2023/04/15 08:21:15;;;;;;;10.80;6.60;;;9.70;99.90;;;;;;4995910;28;20046;-74
2023/04/15 08:23:42;;;;;;;11.27;6.82;;;9.80;99.90;;;;;;4996103;28;20119;-74
2023/04/15 08:26:08;;;;;;;12.68;7.20;;;9.90;99.90;;;;;;5012676;28;20038;-74
2023/04/15 08:28:35;;;;;;;10.27;6.50;;;9.90;99.90;;;;;;4997236;28;20042;-74
2023/04/15 08:31:00;;;;;;;10.75;6.47;;;10.00;99.90;;;;;;5009786;28;20034;-74
2023/04/15 08:33:27;;;;;;;9.20;6.28;;;10.10;99.90;;;;;;4980018;28;20126;-74
2023/04/15 08:35:53;;;;;;;11.10;6.63;;;10.10;99.90;;;;;;4975110;28;20043;-74
2023/04/15 08:38:18;;;;;;;10.25;6.05;;;10.10;99.90;;;;;;4996032;28;20092;-73
2023/04/15 08:40:45;;;;;;;8.63;4.88;;;10.20;99.90;;;;;;5014454;28;20049;-74
2023/04/15 08:43:27;;;;;;;8.07;5.00;;;10.30;99.90;;;;;;5014464;28;20051;-74
2023/04/15 08:45:53;;;;;;;8.10;5.20;;;10.30;99.90;;;;;;4993414;28;20037;-74
2023/04/15 08:48:21;;;;;;;7.57;4.50;;;10.40;99.90;;;;;;4984186;28;20136;-74
2023/04/15 08:50:47;;;;;;;8.77;5.00;;;10.40;99.90;;;;;;5020386;28;20073;-74
2023/04/15 08:53:14;;;;;;;7.47;4.30;;;10.40;99.90;;;;;;5012345;28;20038;-74
2023/04/15 08:55:45;;;;;;;6.13;4.00;;;10.40;99.90;;;;;;4997368;28;20394;-74
2023/04/15 08:58:14;;;;;;;7.30;4.53;;;10.50;99.90;;;;;;4995749;28;20042;-74
2023/04/15 09:00:40;;;;;;;7.38;4.80;;;10.50;99.90;;;;;;4973170;28;20049;-74
2023/04/15 09:03:07;;;;;;;7.93;4.50;;;10.50;99.90;;;;;;4992982;28;20049;-74
2023/04/15 09:05:37;;;;;;;7.00;4.38;;;10.50;99.90;;;;;;4981625;28;20449;-74
2023/04/15 09:08:04;;;;;;;7.13;4.28;;;10.50;99.90;;;;;;4977319;28;20123;-74
2023/04/15 09:10:32;;;;;;;7.60;4.80;;;10.50;99.90;;;;;;4977953;28;20535;-74
2023/04/15 09:12:58;;;;;;;7.10;4.50;;;10.40;99.90;;;;;;5010883;28;20621;-74
2023/04/15 09:15:26;;;;;;;7.35;4.60;;;10.40;99.90;;;;;;4993922;28;20105;-74
2023/04/15 09:17:52;;;;;;;8.60;5.05;;;10.40;99.90;;;;;;4986720;28;20516;-74
2023/04/15 09:20:20;;;;;;;7.95;4.70;;;10.50;99.90;;;;;;4976473;28;20034;-74
2023/04/15 09:22:48;;;;;;;9.38;5.43;;;10.50;99.90;;;;;;5007255;28;20056;-74
2023/04/15 09:25:14;;;;;;;11.20;5.60;;;10.50;99.90;;;;;;4975324;28;20117;-74
2023/04/15 09:27:49;;;;;;;10.18;5.53;;;10.60;99.90;;;;;;5013094;28;20104;-74
2023/04/15 09:30:16;;;;;;;8.10;4.60;;;10.60;99.90;;;;;;5002001;28;20038;-74
2023/04/15 09:32:59;;;;;;;7.47;4.40;;;10.60;99.90;;;;;;4993240;28;20306;-74
2023/04/15 09:35:26;;;;;;;7.30;4.80;;;10.50;99.90;;;;;;4999561;28;20089;-74
2023/04/15 09:38:00;;;;;;;8.23;4.43;;;10.50;99.90;;;;;;5004413;28;20034;-74
2023/04/15 09:40:37;;;;;;;7.93;4.35;;;10.50;99.90;;;;;;5008643;28;20449;-74
2023/04/15 09:43:04;;;;;;;8.02;4.10;;;10.50;99.90;;;;;;4996757;28;20038;-74
2023/04/15 09:45:31;;;;;;;7.70;4.15;;;10.50;99.90;;;;;;4992010;28;20038;-74
2023/04/15 09:48:15;;;;;;;5.70;3.50;;;10.60;99.90;;;;;;4999605;23;20176;-66
2023/04/15 09:50:42;;;;;;;8.20;3.50;;;10.60;99.90;;;;;;4988174;28;20042;-65
2023/04/15 09:53:10;;;;;;;7.63;3.60;;;10.60;99.90;;;;;;4985233;28;20089;-65
2023/04/15 09:55:36;;;;;;;8.68;3.75;;;10.50;99.90;;;;;;4981310;28;20707;-65
2023/04/15 09:58:07;;;;;;;7.22;3.80;;;10.50;99.90;;;;;;4993241;28;20442;-65
2023/04/15 10:00:33;;;;;;;6.38;3.55;;;10.50;99.90;;;;;;5001199;28;20113;-65
2023/04/15 10:02:58;;;;;;;7.00;3.70;;;10.50;99.90;;;;;;5003344;28;20161;-65
2023/04/15 10:05:25;;;;;;;5.97;3.40;;;10.60;99.90;;;;;;5003280;28;20098;-65
2023/04/15 10:07:50;;;;;;;7.90;3.60;;;10.50;99.90;;;;;;5007751;28;20215;-65
2023/04/15 10:10:17;;;;;;;6.70;3.15;;;10.50;99.90;;;;;;5008291;28;20038;-65
2023/04/15 10:12:43;;;;;;;5.78;3.13;;;10.50;99.90;;;;;;4986023;28;20061;-65
2023/04/15 10:15:16;;;;;;;5.80;2.90;;;10.50;99.90;;;;;;5004498;28;20042;-65
2023/04/15 10:17:43;;;;;;;;;;;10.50;99.90;;;;;;4986637;28;20045;-65
2023/04/15 10:20:11;;;;;;;7.63;3.10;;;10.60;99.90;;;;;;5000935;28;20343;-65
2023/04/15 10:22:37;;;;;;;6.28;2.63;;;10.70;99.90;;;;;;4977547;28;20050;-65
2023/04/15 10:25:03;;;;;;;4.25;2.50;;;10.70;99.90;;;;;;5008312;28;20044;-65
2023/04/15 10:27:29;;;;;;;6.53;2.80;;;10.80;99.90;;;;;;5001763;28;20038;-65
2023/04/15 10:29:56;;;;;;;5.03;2.42;;;10.70;99.90;;;;;;5000647;28;20046;-65
2023/04/15 10:32:24;;;;;;;7.03;2.53;;;10.80;99.90;;;;;;4992379;28;20262;-65
2023/04/15 10:34:51;;;;;;;9.48;2.85;;;10.80;99.90;;;;;;5006631;28;20456;-66
2023/04/15 10:37:21;;;;;;;6.13;2.90;;;10.80;99.90;;;;;;4988409;28;20080;-65
2023/04/15 10:39:50;;;;;;;4.40;2.60;;;10.90;99.90;;;;;;5010052;28;20100;-65
2023/04/15 10:42:18;;;;;;;4.60;2.65;;;10.90;99.90;;;;;;5003927;28;20037;-65
2023/04/15 10:44:47;;;;;;;11.68;7.53;;;10.90;99.90;;;;;;4989648;28;20048;-65
2023/04/15 10:47:17;;;;;;;6.63;3.35;;;10.90;99.90;;;;;;4989146;28;20042;-65
2023/04/15 10:49:49;;;;;;;10.25;3.58;;;10.80;99.90;;;;;;5008097;28;20373;-65
2023/04/15 10:52:17;;;;;;;8.18;4.00;;;10.80;99.90;;;;;;4988216;28;20084;-65
2023/04/15 10:54:43;;;;;;;8.40;3.50;;;10.70;99.90;;;;;;5008259;28;20454;-65
2023/04/15 10:57:15;;;;;;;5.88;3.00;;;10.80;99.90;;;;;;4989098;28;20091;-64
2023/04/15 11:00:10;;;;;;;7.38;3.00;;;10.80;99.90;;;;;;5003180;28;20690;-66
2023/04/15 11:02:54;;;;;;;6.68;2.47;;;10.80;99.90;;;;;;4977502;28;20042;-64
2023/04/15 11:05:33;;;;;;;4.80;2.70;;;10.90;99.90;;;;;;4998143;28;20907;-62
2023/04/15 11:07:58;;;;;;;4.00;2.33;;;11.00;99.90;;;;;;5003904;28;20440;-68
2023/04/15 11:10:24;;;;;;;7.35;2.25;;;11.10;99.90;;;;;;5006782;28;20041;-68
2023/04/15 11:12:57;;;;;;;6.82;2.00;;;11.20;99.90;;;;;;4972997;28;20046;-66
2023/04/15 11:15:44;;;;;;;6.18;3.17;;;11.30;99.90;;;;;;4989269;28;20072;-66
2023/04/15 11:18:39;;;;;;;4.60;2.33;;;11.30;99.90;;;;;;4987535;28;20121;-65
2023/04/15 11:21:07;;;;;;;4.18;2.20;;;11.30;99.90;;;;;;4969408;28;20061;-65
2023/04/15 11:23:45;;;;;;;4.28;2.00;;;11.30;99.90;;;;;;5007444;28;20499;-66
2023/04/15 11:26:11;;;;;;;3.92;1.92;;;11.20;99.90;;;;;;4990546;28;20405;-66
2023/04/15 11:28:40;;;;;;;5.10;1.90;;;11.20;99.90;;;;;;5009914;28;20409;-66
2023/04/15 11:31:16;;;;;;;5.10;3.20;;;11.10;99.90;;;;;;5000433;28;20116;-66
2023/04/15 11:33:55;;;;;;;4.97;2.30;;;11.10;99.90;;;;;;4990607;28;20508;-66
2023/04/15 11:36:25;;;;;;;4.75;2.20;;;11.00;99.90;;;;;;5007976;28;20050;-65
2023/04/15 11:38:51;;;;;;;4.80;2.28;;;11.00;99.90;;;;;;5003991;28;20699;-66
2023/04/15 11:41:20;;;;;;;4.95;1.90;;;11.00;99.90;;;;;;4990614;28;20042;-65
2023/04/15 11:43:46;;;;;;;4.28;2.10;;;11.00;99.90;;;;;;5008279;28;20037;-65
2023/04/15 11:46:12;;;;;;;4.90;2.38;;;11.00;99.90;;;;;;5009865;28;20034;-65
2023/04/15 11:48:45;;;;;;;8.30;2.45;;;11.00;99.90;;;;;;5011573;28;20404;-65
2023/04/15 11:51:11;;;;;;;10.60;2.75;;;11.00;99.90;;;;;;4985874;28;20046;-66
2023/04/15 11:53:43;;;;;;;4.05;2.25;;;11.00;99.90;;;;;;5007429;28;20041;-65
2023/04/15 11:56:16;;;;;;;38.53;3.63;;;11.00;99.90;;;;;;4991759;28;20038;-66
2023/04/15 11:58:42;;;;;;;25.17;3.95;;;10.90;99.90;;;;;;4992185;28;20429;-66
2023/04/15 12:01:07;;;;;;;8.75;2.10;;;10.90;99.90;;;;;;5006735;28;20500;-65
2023/04/15 12:03:42;;;;;;;3.83;2.10;;;10.90;99.90;;;;;;5008887;28;20041;-65
2023/04/15 12:06:19;;;;;;;4.95;2.03;;;10.90;99.90;;;;;;4991428;28;20476;-65
2023/04/15 12:08:57;;;;;;;4.90;2.33;;;10.90;99.90;;;;;;5004535;28;20045;-65
2023/04/15 12:11:28;;;;;;;6.72;2.15;;;10.90;99.90;;;;;;4975101;28;20053;-65
2023/04/15 12:13:57;;;;;;;3.88;2.05;;;11.00;99.90;;;;;;5005431;28;20041;-65
2023/04/15 12:16:23;;;;;;;6.07;2.30;;;11.10;99.90;;;;;;5007687;28;20069;-65
2023/04/15 12:18:54;;;;;;;6.55;2.33;;;11.10;99.90;;;;;;4996388;28;20034;-65
2023/04/15 12:21:22;;;;;;;5.10;2.20;;;11.10;99.90;;;;;;5010623;28;20033;-65
2023/04/15 12:24:00;;;;;;;6.47;2.35;;;11.10;99.90;;;;;;5010808;28;20042;-65
2023/04/15 12:26:28;;;;;;;4.75;2.10;;;11.00;99.90;;;;;;4987247;28;20050;-65
2023/04/15 12:29:04;;;;;;;6.15;2.60;;;11.00;99.90;;;;;;5009598;28;20582;-66
2023/04/15 12:31:30;;;;;;;7.72;3.63;;;11.00;99.90;;;;;;5006783;28;20318;-70
2023/04/15 12:33:57;;;;;;;11.25;4.40;;;11.00;99.90;;;;;;5011988;28;20457;-65
2023/04/15 12:36:23;;;;;;;7.40;3.80;;;10.90;99.90;;;;;;5010170;28;20117;-65
2023/04/15 12:38:49;;;;;;;7.60;3.15;;;10.90;99.90;;;;;;4992170;28;20118;-65
2023/04/15 12:41:15;;;;;;;5.22;2.30;;;10.90;99.90;;;;;;4991997;28;20042;-65
2023/04/15 12:43:41;;;;;;;4.45;1.90;;;10.90;99.90;;;;;;5008302;28;20042;-65
2023/04/15 12:46:07;;;;;;;3.95;2.00;;;10.90;99.90;;;;;;5014505;28;20373;-65